createdAt,value
2022-11-13T00:00:00.033Z,31.10
2022-11-13T00:04:02.882Z,30.10
2022-11-13T00:07:48.950Z,25.70
2022-11-13T00:11:35.239Z,32.60
2022-11-13T00:15:21.533Z,30.40
2022-11-13T00:19:07.463Z,27.50
2022-11-13T00:22:53.412Z,29.40
2022-11-13T00:26:40.042Z,25.30
2022-11-13T00:30:26.346Z,29.00
2022-11-13T00:34:41.488Z,29.80
2022-11-13T00:38:22.311Z,29.60
2022-11-13T00:42:08.450Z,30.30
2022-11-13T00:45:56.265Z,31.00
2022-11-13T00:49:42.156Z,31.90
2022-11-13T00:53:28.402Z,30.80
2022-11-13T00:57:14.450Z,27.80
2022-11-13T01:01:08.906Z,28.30
2022-11-13T01:04:55.154Z,32.60
2022-11-13T01:08:43.740Z,34.30
2022-11-13T01:12:29.751Z,30.80
2022-11-13T01:16:18.965Z,29.80
2022-11-13T01:20:06.482Z,27.90
2022-11-13T01:23:54.885Z,26.40
2022-11-13T01:27:41.051Z,30.00
2022-11-13T01:31:29.614Z,31.90
2022-11-13T01:35:15.197Z,35.80
2022-11-13T01:39:00.785Z,31.50
2022-11-13T01:42:46.230Z,33.10
2022-11-13T01:46:35.333Z,30.80
2022-11-13T01:50:21.437Z,31.00
2022-11-13T01:54:11.904Z,29.90
2022-11-13T01:57:58.245Z,31.90
2022-11-13T02:01:43.935Z,29.10
2022-11-13T02:05:29.781Z,35.30
2022-11-13T02:09:16.849Z,33.50
2022-11-13T02:13:03.460Z,30.30
2022-11-13T02:16:54.132Z,32.10
2022-11-13T02:20:48.383Z,28.30
2022-11-13T02:24:40.985Z,32.80
2022-11-13T02:28:29.175Z,35.80
2022-11-13T02:32:15.135Z,36.20
2022-11-13T02:36:01.543Z,34.50
2022-11-13T02:39:49.107Z,30.70
2022-11-13T02:43:35.304Z,35.00
2022-11-13T02:47:20.918Z,37.80
2022-11-13T02:51:07.487Z,49.30
2022-11-13T02:54:55.285Z,47.60
2022-11-13T02:58:40.938Z,48.30
2022-11-13T03:02:28.234Z,48.50
2022-11-13T03:06:14.274Z,45.60
2022-11-13T03:10:00.460Z,48.80
2022-11-13T03:13:46.406Z,47.40
2022-11-13T03:17:34.106Z,74.60
2022-11-13T03:21:19.952Z,49.80
2022-11-13T03:25:10.498Z,44.80
2022-11-13T03:28:58.811Z,44.50
2022-11-13T03:32:45.114Z,49.10
2022-11-13T03:36:31.370Z,44.80
2022-11-13T03:40:17.598Z,48.40
2022-11-13T03:44:03.576Z,55.70
2022-11-13T03:47:49.894Z,100.70
2022-11-13T03:51:36.233Z,57.30
2022-11-13T03:55:21.855Z,75.10
2022-11-13T03:59:08.068Z,88.10
2022-11-13T04:02:53.929Z,53.80
2022-11-13T04:06:40.233Z,84.10
2022-11-13T04:10:26.115Z,73.90
2022-11-13T04:14:12.131Z,50.20
2022-11-13T04:17:57.931Z,50.70
2022-11-13T04:21:43.885Z,59.30
2022-11-13T04:25:29.403Z,61.80
2022-11-13T04:29:15.813Z,59.10
2022-11-13T04:33:01.717Z,46.20
2022-11-13T04:36:46.884Z,50.80
2022-11-13T04:40:32.849Z,56.30
2022-11-13T04:44:18.680Z,40.60
2022-11-13T04:48:05.238Z,41.10
2022-11-13T04:51:51.236Z,45.60
2022-11-13T04:55:37.491Z,49.50
2022-11-13T04:59:23.341Z,41.80
2022-11-13T05:03:09.771Z,41.80
2022-11-13T05:06:55.895Z,44.90
2022-11-13T05:10:41.640Z,52.30
2022-11-13T05:14:27.372Z,49.00
2022-11-13T05:18:13.132Z,48.30
2022-11-13T05:21:59.156Z,74.20
2022-11-13T05:25:44.927Z,49.50
2022-11-13T05:29:31.156Z,57.90
2022-11-13T05:33:17.433Z,66.90
2022-11-13T05:37:03.404Z,81.70
2022-11-13T05:40:48.960Z,98.50
2022-11-13T05:44:35.034Z,59.20
2022-11-13T05:48:21.135Z,72.10
2022-11-13T05:52:06.828Z,48.20
2022-11-13T05:55:52.753Z,58.80
2022-11-13T05:59:39.236Z,56.10
2022-11-13T06:03:26.166Z,80.40
2022-11-13T06:07:11.913Z,56.70
2022-11-13T06:11:02.047Z,53.40
2022-11-13T06:14:48.204Z,68.20
2022-11-13T06:18:35.410Z,50.10
2022-11-13T06:22:21.533Z,47.20
2022-11-13T06:26:08.452Z,40.70
2022-11-13T06:29:53.779Z,39.80
2022-11-13T06:33:44.646Z,41.30
2022-11-13T06:37:34.493Z,85.30
2022-11-13T06:41:22.349Z,38.60
2022-11-13T06:45:08.662Z,52.60
2022-11-13T06:48:54.556Z,144.90
2022-11-13T06:52:39.763Z,135.10
2022-11-13T06:56:25.974Z,81.60
2022-11-13T07:00:14.161Z,117.90
2022-11-13T07:04:00.363Z,148.50
2022-11-13T07:07:45.632Z,80.60
2022-11-13T07:11:31.343Z,130.80
2022-11-13T07:15:17.382Z,95.00
2022-11-13T07:19:05.660Z,43.90
2022-11-13T07:22:51.059Z,78.50
2022-11-13T07:26:37.464Z,97.20
2022-11-13T07:30:24.014Z,46.00
2022-11-13T07:34:10.006Z,62.60
2022-11-13T07:38:00.106Z,76.40
2022-11-13T07:41:45.744Z,64.70
2022-11-13T07:45:31.968Z,64.20
2022-11-13T07:49:18.874Z,58.00
2022-11-13T07:53:06.515Z,68.40
2022-11-13T07:56:52.103Z,32.60
2022-11-13T08:00:38.603Z,76.80
2022-11-13T08:04:24.402Z,67.80
2022-11-13T08:08:13.122Z,51.10
2022-11-13T08:11:58.643Z,66.00
2022-11-13T08:15:44.233Z,42.70
2022-11-13T08:19:29.995Z,51.80
2022-11-13T08:23:15.477Z,48.10
2022-11-13T08:27:01.524Z,39.70
2022-11-13T08:30:48.310Z,40.00
2022-11-13T08:34:35.879Z,39.60
2022-11-13T08:38:22.797Z,36.50
2022-11-13T08:42:09.114Z,38.70
2022-11-13T08:45:54.655Z,35.50
2022-11-13T08:49:40.329Z,41.20
2022-11-13T08:53:26.797Z,38.40
2022-11-13T08:57:12.924Z,33.20
2022-11-13T09:01:05.597Z,37.70
2022-11-13T09:04:51.539Z,32.30
2022-11-13T09:08:38.818Z,28.30
2022-11-13T09:12:24.653Z,24.60
2022-11-13T09:16:11.139Z,24.50
2022-11-13T09:20:02.192Z,24.00
2022-11-13T09:23:49.791Z,23.20
2022-11-13T09:27:35.458Z,23.80
2022-11-13T09:31:23.398Z,23.90
2022-11-13T09:35:10.142Z,27.40
2022-11-13T09:38:56.177Z,24.10
2022-11-13T09:42:43.714Z,29.00
2022-11-13T09:46:42.002Z,29.40
2022-11-13T09:50:30.691Z,23.80
2022-11-13T09:54:17.462Z,26.60
2022-11-13T09:58:12.238Z,23.40
2022-11-13T10:02:05.007Z,26.00
2022-11-13T10:05:58.865Z,23.80
2022-11-13T10:10:00.921Z,28.60
2022-11-13T10:13:53.963Z,25.20
2022-11-13T10:17:44.019Z,24.80
2022-11-13T10:21:35.018Z,29.90
2022-11-13T10:25:22.917Z,22.70
2022-11-13T10:29:15.336Z,22.10
2022-11-13T10:33:09.440Z,19.10
2022-11-13T10:37:21.491Z,16.50
2022-11-13T10:41:14.159Z,16.70
2022-11-13T10:45:01.679Z,17.60
2022-11-13T10:48:48.947Z,19.30
2022-11-13T10:52:38.541Z,19.50
2022-11-13T10:56:31.630Z,27.20
2022-11-13T11:00:26.836Z,56.00
2022-11-13T11:04:21.376Z,27.70
2022-11-13T11:08:12.351Z,25.60
2022-11-13T11:12:18.726Z,26.60
2022-11-13T11:16:44.693Z,30.80
2022-11-13T11:20:46.788Z,29.90
2022-11-13T11:24:36.753Z,31.10
2022-11-13T11:28:31.924Z,31.90
2022-11-13T11:32:24.826Z,35.70
2022-11-13T11:36:23.597Z,39.50
2022-11-13T11:40:21.618Z,31.90
2022-11-13T11:44:16.994Z,32.40
2022-11-13T11:48:06.468Z,43.30
2022-11-13T11:52:05.607Z,36.50
2022-11-13T11:56:19.909Z,35.50
2022-11-13T12:00:12.523Z,31.30
2022-11-13T12:04:16.248Z,35.80
2022-11-13T12:08:13.486Z,34.00
2022-11-13T12:12:11.573Z,34.80
2022-11-13T12:16:04.444Z,34.40
2022-11-13T12:20:03.963Z,37.30
2022-11-13T12:24:07.516Z,36.40
2022-11-13T12:28:00.169Z,42.60
2022-11-13T12:31:59.429Z,40.80
2022-11-13T12:36:13.529Z,50.20
2022-11-13T12:40:07.576Z,41.00
2022-11-13T12:44:24.598Z,39.90
2022-11-13T12:48:29.201Z,34.80
2022-11-13T12:52:24.660Z,28.90
2022-11-13T12:56:19.188Z,31.70
2022-11-13T13:00:26.855Z,29.40
2022-11-13T13:04:46.653Z,30.10
2022-11-13T13:08:58.519Z,29.10
2022-11-13T13:12:57.081Z,33.10
2022-11-13T13:16:51.495Z,29.00
2022-11-13T13:20:40.461Z,29.30
2022-11-13T13:24:38.231Z,27.70
2022-11-13T13:28:25.797Z,34.20
2022-11-13T13:32:21.388Z,26.80
2022-11-13T13:36:18.230Z,31.70
2022-11-13T13:40:22.277Z,38.70
2022-11-13T13:50:40.572Z,29.80
2022-11-13T14:05:35.729Z,36.60
2022-11-13T14:09:24.086Z,29.80
2022-11-13T14:13:17.023Z,23.00
2022-11-13T14:17:04.175Z,26.60
2022-11-13T14:20:55.908Z,25.50
2022-11-13T14:24:52.060Z,24.20
2022-11-13T14:28:53.597Z,28.40
2022-11-13T14:32:47.278Z,29.10
2022-11-13T14:36:37.412Z,27.40
2022-11-13T14:40:26.617Z,38.50
2022-11-13T14:44:30.746Z,23.90
2022-11-13T14:48:24.580Z,26.40
2022-11-13T14:52:24.483Z,26.50
2022-11-13T14:56:13.472Z,24.70
2022-11-13T15:00:13.394Z,21.60
2022-11-13T15:04:03.824Z,22.90
2022-11-13T15:07:51.561Z,22.60
2022-11-13T15:11:40.598Z,28.30
2022-11-13T15:15:36.387Z,31.50
2022-11-13T15:19:27.229Z,33.80
2022-11-13T15:23:17.664Z,37.70
2022-11-13T15:27:07.209Z,35.70
2022-11-13T15:30:54.577Z,41.10
2022-11-13T15:34:44.694Z,37.90
2022-11-13T15:38:32.575Z,37.20
2022-11-13T15:42:23.972Z,40.20
2022-11-13T15:46:16.447Z,29.20
2022-11-13T15:50:15.287Z,27.20
2022-11-13T15:54:03.981Z,22.50
2022-11-13T15:57:54.045Z,33.80
2022-11-13T16:01:42.533Z,29.60
2022-11-13T16:05:33.905Z,26.30
2022-11-13T16:09:21.974Z,22.30
2022-11-13T16:13:13.617Z,28.40
2022-11-13T16:17:00.484Z,29.80
2022-11-13T16:20:47.860Z,34.80
2022-11-13T16:24:34.274Z,25.60
2022-11-13T16:28:23.062Z,23.90
2022-11-13T16:32:11.618Z,23.80
2022-11-13T16:36:06.705Z,23.50
2022-11-13T16:40:00.329Z,25.50
2022-11-13T16:43:52.791Z,31.20
2022-11-13T16:47:42.797Z,23.40
2022-11-13T16:51:31.429Z,23.80
2022-11-13T16:55:20.016Z,30.30
2022-11-13T16:59:14.066Z,31.00
2022-11-13T17:03:04.728Z,25.90
2022-11-13T17:06:56.567Z,28.30
2022-11-13T17:10:44.707Z,23.00
2022-11-13T17:14:30.820Z,25.90
2022-11-13T17:18:17.327Z,23.20
2022-11-13T17:22:04.156Z,24.40
2022-11-13T17:25:52.199Z,25.10
2022-11-13T17:29:40.263Z,25.40
2022-11-13T17:33:26.642Z,28.90
2022-11-13T17:37:13.469Z,25.20
2022-11-13T17:41:05.977Z,25.40
2022-11-13T17:44:51.859Z,23.90
2022-11-13T17:48:41.651Z,24.70
2022-11-13T17:52:28.099Z,23.30
2022-11-13T17:56:16.616Z,23.40
2022-11-13T18:00:04.211Z,22.40
2022-11-13T18:03:55.568Z,23.20
2022-11-13T18:07:41.511Z,18.90
2022-11-13T18:11:29.989Z,21.80
2022-11-13T18:15:17.296Z,20.70
2022-11-13T18:19:07.072Z,19.10
2022-11-13T18:22:53.922Z,21.20
2022-11-13T18:26:40.414Z,23.70
2022-11-13T18:30:26.405Z,25.90
2022-11-13T18:34:16.996Z,21.40
2022-11-13T18:38:05.807Z,26.40
2022-11-13T18:41:52.297Z,23.50
2022-11-13T18:45:40.699Z,28.00
2022-11-13T18:49:27.340Z,27.70
2022-11-13T18:53:15.317Z,25.60
2022-11-13T18:57:03.849Z,24.60
2022-11-13T19:00:50.558Z,26.60
2022-11-13T19:04:38.401Z,26.20
2022-11-13T19:08:25.954Z,25.80
2022-11-13T19:12:12.931Z,27.50
2022-11-13T19:15:59.751Z,27.40
2022-11-13T19:19:47.922Z,27.70
2022-11-13T19:23:37.539Z,29.00
2022-11-13T19:27:25.485Z,26.00
2022-11-13T19:31:19.154Z,27.00
2022-11-13T19:35:08.109Z,27.70
2022-11-13T19:38:57.846Z,29.50
2022-11-13T19:42:45.516Z,30.30
2022-11-13T19:46:34.384Z,26.70
2022-11-13T19:50:24.730Z,28.40
2022-11-13T19:54:14.270Z,26.70
2022-11-13T19:58:02.530Z,24.30
2022-11-13T20:01:48.755Z,23.90
2022-11-13T20:05:34.935Z,26.30
2022-11-13T20:09:20.933Z,29.70
2022-11-13T20:13:07.535Z,29.00
2022-11-13T20:16:56.194Z,29.90
2022-11-13T20:20:54.430Z,31.10
2022-11-13T20:24:42.827Z,27.00
2022-11-13T20:28:33.000Z,23.00
2022-11-13T20:32:20.140Z,22.70
2022-11-13T20:36:12.714Z,23.30
2022-11-13T20:40:00.878Z,23.20
2022-11-13T20:43:56.316Z,19.50
2022-11-13T20:47:49.784Z,21.90
2022-11-13T20:51:36.593Z,20.60
2022-11-13T20:55:24.239Z,23.20
2022-11-13T20:59:11.037Z,20.70
2022-11-13T21:03:07.903Z,18.80
2022-11-13T21:06:55.671Z,17.30
2022-11-13T21:10:42.129Z,19.30
2022-11-13T21:14:29.248Z,15.40
2022-11-13T21:18:21.008Z,15.50
2022-11-13T21:22:13.397Z,15.60
2022-11-13T21:26:08.279Z,13.60
2022-11-13T21:29:58.251Z,13.40
2022-11-13T21:33:51.087Z,14.30
2022-11-13T21:37:38.010Z,13.70
2022-11-13T21:41:28.445Z,14.70
2022-11-13T21:45:25.886Z,14.40
2022-11-13T21:49:14.643Z,14.50
2022-11-13T21:53:01.152Z,15.90
2022-11-13T21:56:48.402Z,14.20
2022-11-13T22:00:34.452Z,16.20
2022-11-13T22:04:21.378Z,16.30
2022-11-13T22:08:08.010Z,14.00
2022-11-13T22:11:53.599Z,13.40
2022-11-13T22:15:39.719Z,16.60
2022-11-13T22:19:28.419Z,14.20
2022-11-13T22:23:19.597Z,15.60
2022-11-13T22:27:05.532Z,16.30
2022-11-13T22:30:52.438Z,16.40
2022-11-13T22:34:43.169Z,13.80
2022-11-13T22:38:35.375Z,14.90
2022-11-13T22:42:21.686Z,13.80
2022-11-13T22:46:10.242Z,12.40
2022-11-13T22:49:58.606Z,13.20
2022-11-13T22:53:50.285Z,11.60
2022-11-13T22:57:36.579Z,12.30
2022-11-13T23:01:25.291Z,13.60
2022-11-13T23:05:12.209Z,17.60
2022-11-13T23:08:59.766Z,13.80
2022-11-13T23:12:45.999Z,15.50
2022-11-13T23:16:32.647Z,15.10
2022-11-13T23:20:19.491Z,17.10
2022-11-13T23:24:06.606Z,15.30
2022-11-13T23:27:53.628Z,16.80
2022-11-13T23:31:39.708Z,16.20
2022-11-13T23:35:27.957Z,17.00
2022-11-13T23:39:15.812Z,15.90
2022-11-13T23:43:04.394Z,19.10
2022-11-13T23:46:50.578Z,18.50
2022-11-13T23:50:37.973Z,19.20
2022-11-13T23:54:25.235Z,17.30
2022-11-13T23:58:16.720Z,19.60
